Ana Sayfa
METAR-TAF:

METAR-TAF

Havaalanları :

Hamilton, Teksas, Amerika Birleşik Devletleri

Enlem: 31-39-57N, Boylam: 098-08-55W, yükseklik: 396 m

Güncel hava durumu gözlemi

Rapor saat 10:15 UTC de 28 dakika önce yapıldı.
Rüzgar kuzey/kuzeybatıdan 16 kt ve 22 kt'a kadar ani rüzgarlar
Sıcaklık 5°C
Nem 81%
Basınç 1017 hPa
Görüş mesafesi: 16.1 km
1800 ft yükseklikte çok bulutlu

METAR: KMNZ 291015Z AUTO 33016G22KT 10SM OVC018 05/02 A3002 RMK AO2 T00510018

Saat: 03:43 (10:43 UTC)


TAF: eksik

4.000'den fazla havaalanı için hava durumu gözlemleri ve tahminleri (METAR ve TAF raporları).

Kullanılabilir istasyonlar harita üzerinde sarı ve kırmızı noktalarla gösterilir.

İstasyonun adını görmek için fareyi noktanın üzerinde gezdirin.

Sonrasında hava gözlem ve tahminlerini görmek için tıklayın.

Haritayı değiştirmek için: yaklaştırmak için siyah artı işaretli yeşil düğmeye ve uzaklaştırmak için de eksi işaretli düğmeye hızla tıklayın; bitişik haritalar için yeşil okları kullanın.


METAR-TAF: